.
WxDataArchive / Data Records for 2006-02-24
2006-02-23 February 2006 2006-02-25

Data Records for Friday, 24 February 2006

Time	Temp	Chill	HIndex	Humid	Dewpt	 Wind 	HiWind	WindDir	Rain 	Barom 
-----	----	-----	------	-----	-----	------	------	-------	-----	----- 
00:00	26.7	26.7	26.7	65	16.5	0	2	270	0.00	30.192 
00:05	26.7	26.7	26.7	65	16.5	0	1	270	0.00	30.192 
00:10	26.6	26.6	26.6	66	16.8	0	1	270	0.00	30.192 
00:15	26.4	26.4	26.4	66	16.6	0	1	270	0.00	30.195 
00:20	26.1	26.1	26.1	67	16.7	0	1	270	0.00	30.195 
00:25	26.0	26.0	26.0	67	16.6	0	0	---	0.00	30.195 
00:30	26.0	26.0	26.0	67	16.6	0	1	270	0.00	30.209 
00:35	26.0	26.0	26.0	68	16.9	0	2	270	0.00	30.209 
00:40	26.0	26.0	26.0	67	16.6	0	2	270	0.00	30.209 
00:45	26.0	26.0	26.0	67	16.6	0	2	270	0.00	30.210 
00:50	26.1	26.1	26.1	67	16.7	1	3	270	0.00	30.210 
00:55	26.1	26.1	26.1	65	16.0	1	4	315	0.00	30.210 
01:00	26.0	26.0	26.0	65	15.9	1	3	270	0.00	30.218 
01:05	26.0	26.0	26.0	64	15.5	1	3	292	0.00	30.218 
01:10	26.0	26.0	26.0	64	15.5	1	4	338	0.00	30.218 
01:15	26.0	26.0	26.0	64	15.5	1	3	270	0.00	30.221 
01:20	25.8	25.8	25.8	64	15.3	1	3	292	0.00	30.221 
01:25	25.8	25.8	25.8	64	15.3	1	3	270	0.00	30.221 
01:30	25.7	25.7	25.7	64	15.2	1	3	292	0.00	30.234 
01:35	25.4	25.4	25.4	65	15.3	0	1	315	0.00	30.234 
01:40	25.3	25.3	25.3	65	15.2	0	1	315	0.00	30.234 
01:45	25.1	25.1	25.1	65	15.0	1	3	315	0.00	30.244 
01:50	25.1	25.1	25.1	65	15.0	0	1	248	0.00	30.244 
01:55	24.8	24.8	24.8	65	14.7	0	1	248	0.00	30.244 
02:00	24.7	24.7	24.7	66	15.0	0	2	248	0.00	30.257 
02:05	24.5	24.5	24.5	66	14.8	0	1	248	0.00	30.257 
02:10	24.4	24.4	24.4	66	14.7	0	1	248	0.00	30.257 
02:15	24.2	24.2	24.2	67	14.8	0	2	225	0.00	30.260 
02:20	24.1	24.1	24.1	67	14.8	0	1	225	0.00	30.260 
02:25	23.9	23.9	23.9	67	14.6	0	1	225	0.00	30.260 
02:30	23.8	23.8	23.8	68	14.8	0	1	225	0.00	30.270 
02:35	23.6	23.6	23.6	68	14.6	0	1	225	0.00	30.270 
02:40	23.6	23.6	23.6	68	14.6	0	0	---	0.00	30.270 
02:45	23.5	23.5	23.5	68	14.5	0	0	---	0.00	30.277 
02:50	23.3	23.3	23.3	68	14.3	0	1	225	0.00	30.277 
02:55	23.2	23.2	23.2	69	14.6	1	2	225	0.00	30.277 
03:00	23.0	23.0	23.0	69	14.4	0	1	225	0.00	30.286 
03:05	23.0	23.0	23.0	69	14.4	0	1	225	0.00	30.286 
03:10	22.9	22.9	22.9	69	14.3	0	1	225	0.00	30.286 
03:15	22.7	22.7	22.7	70	14.4	0	0	---	0.00	30.286 
03:20	22.4	22.4	22.4	70	14.1	0	0	---	0.00	30.286 
03:25	22.2	22.2	22.2	71	14.3	0	0	---	0.00	30.286 
03:30	22.1	22.1	22.1	71	14.2	0	0	---	0.00	30.287 
03:35	21.9	21.9	21.9	72	14.3	0	0	---	0.00	30.287 
03:40	21.8	21.8	21.8	72	14.2	0	0	---	0.00	30.287 
03:45	21.8	21.8	21.8	73	14.5	0	0	---	0.00	30.287 
03:50	21.9	21.9	21.9	72	14.3	0	1	225	0.00	30.287 
03:55	21.9	21.9	21.9	72	14.3	0	1	225	0.00	30.287 
04:00	22.1	22.1	22.1	72	14.5	0	1	225	0.00	30.289 
04:05	22.2	22.2	22.2	71	14.3	0	0	---	0.00	30.289 
04:10	22.1	22.1	22.1	71	14.2	0	0	---	0.00	30.289 
04:15	22.1	22.1	22.1	72	14.5	0	0	---	0.00	30.297 
04:20	21.9	21.9	21.9	72	14.3	0	0	---	0.00	30.297 
04:25	21.8	21.8	21.8	73	14.5	0	0	---	0.00	30.297 
04:30	21.6	21.6	21.6	73	14.3	0	0	---	0.00	30.303 
04:35	21.6	21.6	21.6	73	14.3	0	0	---	0.00	30.303 
04:40	21.4	21.4	21.4	73	14.1	0	1	225	0.00	30.303 
04:45	21.4	21.4	21.4	73	14.1	0	0	---	0.00	30.316 
04:50	21.4	21.4	21.4	73	14.1	0	0	---	0.00	30.316 
04:55	21.3	21.3	21.3	73	14.0	0	0	---	0.00	30.316 
05:00	21.1	21.1	21.1	73	13.8	0	0	---	0.00	30.318 
05:05	21.0	21.0	21.0	73	13.7	0	0	---	0.00	30.318 
05:10	20.6	20.6	20.6	73	13.3	0	0	---	0.00	30.318 
05:15	20.5	20.5	20.5	73	13.2	0	0	---	0.00	30.324 
05:20	20.0	20.0	20.0	73	12.8	0	0	---	0.00	30.324 
05:25	19.7	19.7	19.7	73	12.5	0	0	---	0.00	30.324 
05:30	19.2	19.2	19.2	74	12.3	0	0	---	0.00	30.324 
05:35	18.9	18.9	18.9	75	12.3	0	0	---	0.00	30.324 
05:40	18.6	18.6	18.6	77	12.6	0	0	---	0.00	30.324 
05:45	18.3	18.3	18.3	78	12.6	0	0	---	0.00	30.329 
05:50	18.0	18.0	18.0	78	12.3	0	0	---	0.00	30.329 
05:55	17.8	17.8	17.8	80	12.7	0	1	225	0.00	30.329 
06:00	17.7	17.7	17.7	79	12.3	0	0	---	0.00	30.334 
06:05	17.5	17.5	17.5	80	12.4	0	0	---	0.00	30.334 
06:10	17.3	17.3	17.3	80	12.2	0	0	---	0.00	30.334 
06:15	17.2	17.2	17.2	81	12.4	0	0	---	0.00	30.349 
06:20	17.2	17.2	17.2	81	12.4	0	0	---	0.00	30.349 
06:25	17.0	17.0	17.0	81	12.2	0	0	---	0.00	30.349 
06:30	16.9	16.9	16.9	82	12.4	0	0	---	0.00	30.357 
06:35	16.9	16.9	16.9	82	12.4	0	0	---	0.00	30.357 
06:40	16.7	16.7	16.7	82	12.2	0	0	---	0.00	30.357 
06:45	16.5	16.5	16.5	83	12.3	0	0	---	0.00	30.366 
06:50	16.4	16.4	16.4	83	12.2	0	0	---	0.00	30.366 
06:55	16.4	16.4	16.4	84	12.4	0	0	---	0.00	30.366 
07:00	16.4	16.4	16.4	84	12.4	0	0	---	0.00	30.373 
07:05	16.4	16.4	16.4	84	12.4	0	0	---	0.00	30.373 
07:10	16.4	16.4	16.4	84	12.4	0	0	---	0.00	30.373 
07:15	16.4	16.4	16.4	84	12.4	0	0	---	0.00	30.382 
07:20	16.5	16.5	16.5	84	12.5	0	0	---	0.00	30.382 
07:25	16.5	16.5	16.5	84	12.5	0	0	---	0.00	30.382 
07:30	16.5	16.5	16.5	83	12.3	0	0	---	0.00	30.390 
07:35	16.4	16.4	16.4	83	12.2	0	0	---	0.00	30.390 
07:40	16.5	16.5	16.5	84	12.5	0	0	---	0.00	30.390 
07:45	16.5	16.5	16.5	84	12.5	0	0	---	0.00	30.392 
07:50	16.4	16.4	16.4	84	12.4	0	0	---	0.00	30.392 
07:55	16.5	16.5	16.5	84	12.5	0	0	---	0.00	30.392 
08:00	16.7	16.7	16.7	84	12.7	0	0	---	0.00	30.400 
08:05	16.9	16.9	16.9	85	13.2	0	0	---	0.00	30.400 
08:10	17.5	17.5	17.5	86	14.0	0	0	---	0.00	30.400 
08:15	18.4	18.4	18.4	86	14.9	0	0	---	0.00	30.400 
08:20	19.4	19.4	19.4	85	15.6	0	0	---	0.00	30.400 
08:25	20.3	20.3	20.3	84	16.3	0	0	---	0.00	30.400 
08:30	21.4	21.4	21.4	82	16.8	0	0	---	0.00	30.403 
08:35	22.4	22.4	22.4	79	16.9	0	1	225	0.00	30.403 
08:40	23.5	23.5	23.5	74	16.5	0	2	225	0.00	30.403 
08:45	24.4	24.4	24.4	70	16.0	1	2	225	0.00	30.403 
08:50	25.4	25.4	25.4	70	17.0	0	1	225	0.00	30.403 
08:55	26.3	26.3	26.3	68	17.2	0	1	225	0.00	30.403 
09:00	27.0	27.0	27.0	65	16.8	0	2	225	0.00	30.404 
09:05	27.9	27.9	27.9	62	16.6	0	2	180	0.00	30.404 
09:10	29.0	29.0	29.0	60	16.9	1	2	135	0.00	30.404 
09:15	29.3	29.3	29.3	58	16.4	1	2	135	0.00	30.407 
09:20	29.0	29.0	29.0	60	16.9	0	2	180	0.00	30.407 
09:25	29.3	29.3	29.3	58	16.4	0	2	180	0.00	30.407 
09:30	30.3	30.3	30.3	57	16.9	1	3	135	0.00	30.412 
09:35	31.0	31.0	31.0	58	18.0	1	3	112	0.00	30.412 
09:40	31.2	31.2	31.2	55	16.9	2	4	112	0.00	30.412 
09:45	30.7	30.7	30.7	56	16.9	2	5	90	0.00	30.406 
09:50	31.0	31.0	31.0	56	17.2	0	2	90	0.00	30.406 
09:55	31.3	31.3	31.3	56	17.4	1	4	112	0.00	30.406 
10:00	31.5	31.5	31.5	53	16.4	2	4	90	0.00	30.405 
10:05	31.6	31.6	31.6	53	16.5	1	3	270	0.00	30.405 
10:10	31.8	31.8	31.8	53	16.6	2	5	248	0.00	30.405 
10:15	32.2	32.2	32.2	51	16.1	2	4	112	0.00	30.398 
10:20	32.5	32.5	32.5	51	16.4	2	6	112	0.00	30.398 
10:25	32.7	32.7	32.7	55	18.3	1	5	90	0.00	30.398 
10:30	32.9	32.9	32.9	50	16.3	2	4	112	0.00	30.397 
10:35	31.9	31.9	31.9	52	16.3	1	4	112	0.00	30.397 
10:40	31.3	31.3	31.3	52	15.7	2	5	112	0.00	30.397 
10:45	31.0	31.0	31.0	54	16.3	1	4	112	0.00	30.397 
10:50	31.2	31.2	31.2	54	16.5	2	5	112	0.00	30.397 
10:55	31.2	31.2	31.2	53	16.1	2	5	90	0.00	30.397 
11:00	31.0	31.0	31.0	53	15.9	1	4	90	0.00	30.386 
11:05	31.0	31.0	31.0	52	15.5	2	5	90	0.00	30.386 
11:10	31.0	31.0	31.0	52	15.5	2	5	90	0.00	30.386 
11:15	31.0	31.0	31.0	52	15.5	2	5	112	0.00	30.380 
11:20	31.0	31.0	31.0	53	15.9	3	7	90	0.00	30.380 
11:25	31.0	31.0	31.0	53	15.9	3	6	112	0.00	30.380 
11:30	31.8	31.8	31.8	51	15.8	2	5	112	0.00	30.381 
11:35	32.9	32.9	32.9	52	17.2	2	5	112	0.00	30.381 
11:40	33.4	33.4	33.4	49	16.3	3	7	112	0.00	30.381 
11:45	33.1	33.1	33.1	50	16.5	2	7	45	0.00	30.373 
11:50	33.1	33.1	33.1	50	16.5	2	6	68	0.00	30.373 
11:55	32.8	32.8	32.8	48	15.3	3	9	90	0.00	30.373 
12:00	33.1	33.1	33.1	50	16.5	2	5	90	0.00	30.369 
12:05	33.5	33.5	33.5	49	16.4	3	7	112	0.00	30.369 
12:10	33.8	33.8	33.8	48	16.2	2	7	90	0.00	30.369 
12:15	33.8	30.2	33.8	46	15.2	4	10	90	0.00	30.364 
12:20	34.0	34.0	34.0	47	15.9	3	9	90	0.00	30.364 
12:25	34.1	34.1	34.1	47	16.0	3	6	90	0.00	30.364 
12:30	34.4	34.4	34.4	46	15.8	3	6	90	0.00	30.354 
12:35	34.7	34.7	34.7	46	16.1	3	6	90	0.00	30.354 
12:40	35.0	35.0	35.0	45	15.8	3	9	90	0.00	30.354 
12:45	35.0	35.0	35.0	47	16.8	2	5	68	0.00	30.348 
12:50	35.0	35.0	35.0	43	14.8	3	7	90	0.00	30.348 
12:55	34.9	34.9	34.9	45	15.7	3	7	90	0.00	30.348 
13:00	35.3	35.3	35.3	44	15.6	3	11	90	0.00	30.338 
13:05	35.6	35.6	35.6	44	15.9	3	11	90	0.00	30.338 
13:10	35.8	35.8	35.8	45	16.6	3	6	90	0.00	30.338 
13:15	35.8	35.8	35.8	45	16.6	3	8	90	0.00	30.331 
13:20	35.6	35.6	35.6	43	15.3	3	6	90	0.00	30.331 
13:25	35.8	35.8	35.8	45	16.6	2	4	90	0.00	30.331 
13:30	36.2	36.2	36.2	48	18.4	2	4	225	0.00	30.319 
13:35	36.8	36.8	36.8	46	18.0	2	7	90	0.00	30.319 
13:40	37.3	37.3	37.3	45	17.9	2	7	270	0.00	30.319 
13:45	37.2	37.2	37.2	42	16.2	3	6	90	0.00	30.301 
13:50	37.2	37.2	37.2	43	16.8	2	5	90	0.00	30.301 
13:55	37.0	37.0	37.0	39	14.4	2	7	90	0.00	30.301 
14:00	36.9	36.9	36.9	40	14.9	3	7	90	0.00	30.290 
14:05	37.0	37.0	37.0	43	16.6	3	6	248	0.00	30.290 
14:10	37.5	37.5	37.5	45	18.1	3	6	90	0.00	30.290 
14:15	37.9	37.9	37.9	45	18.5	3	7	248	0.00	30.285 
14:20	37.9	37.9	37.9	42	16.9	3	6	90	0.00	30.285 
14:25	37.8	37.8	37.8	41	16.2	3	12	112	0.00	30.285 
14:30	37.6	37.6	37.6	43	17.2	3	9	90	0.00	30.272 
14:35	38.0	38.0	38.0	43	17.5	3	11	90	0.00	30.272 
14:40	38.5	38.5	38.5	40	16.3	3	7	90	0.00	30.272 
14:45	38.6	38.6	38.6	40	16.4	3	11	90	0.00	30.254 
14:50	38.9	38.9	38.9	39	16.1	2	6	112	0.00	30.254 
14:55	38.8	38.8	38.8	40	16.6	3	7	90	0.00	30.254 
15:00	38.6	38.6	38.6	40	16.4	3	7	90	0.00	30.253 
15:05	38.8	38.8	38.8	40	16.6	3	6	90	0.00	30.253 
15:10	39.2	39.2	39.2	39	16.3	3	7	90	0.00	30.253 
15:15	39.2	39.2	39.2	39	16.3	3	10	90	0.00	30.227 
15:20	39.3	39.3	39.3	38	15.8	3	7	90	0.00	30.227 
15:25	39.5	39.5	39.5	37	15.4	3	7	90	0.00	30.227 
15:30	39.9	39.9	39.9	38	16.4	2	5	90	0.00	30.219 
15:35	40.1	37.4	40.1	38	16.6	4	13	90	0.00	30.219 
15:40	39.9	39.9	39.9	40	17.6	3	9	90	0.00	30.219 
15:45	39.9	39.9	39.9	37	15.8	3	7	90	0.00	30.209 
15:50	39.9	39.9	39.9	39	17.0	3	9	90	0.00	30.209 
15:55	40.2	40.2	40.2	38	16.6	3	9	90	0.00	30.209 
16:00	40.2	40.2	40.2	38	16.6	3	7	90	0.00	30.201 
16:05	40.3	40.3	40.3	36	15.5	3	10	90	0.00	30.201 
16:10	40.2	40.2	40.2	37	16.0	2	11	112	0.00	30.201 
16:15	39.9	39.9	39.9	35	14.5	3	7	90	0.00	30.196 
16:20	39.6	39.6	39.6	35	14.2	3	6	90	0.00	30.196 
16:25	39.6	39.6	39.6	35	14.2	2	6	90	0.00	30.196 
16:30	39.8	39.8	39.8	35	14.4	3	9	90	0.00	30.189 
16:35	39.8	39.8	39.8	34	13.7	3	10	90	0.00	30.189 
16:40	39.6	39.6	39.6	35	14.2	3	9	90	0.00	30.189 
16:45	39.6	39.6	39.6	35	14.2	3	7	112	0.00	30.175 
16:50	39.8	39.8	39.8	36	15.0	2	6	112	0.00	30.175 
16:55	40.1	40.1	40.1	36	15.3	3	10	112	0.00	30.175 
17:00	40.3	40.3	40.3	35	14.8	2	7	112	0.00	30.161 
17:05	40.5	37.9	40.5	33	13.7	4	8	90	0.00	30.161 
17:10	40.8	40.8	40.8	34	14.6	3	6	90	0.00	30.161 
17:15	41.1	41.1	41.1	34	14.9	3	5	90	0.00	30.157 
17:20	40.9	40.9	40.9	33	14.0	3	7	90	0.00	30.157 
17:25	40.9	40.9	40.9	34	14.7	2	7	90	0.00	30.157 
17:30	41.1	41.1	41.1	34	14.9	2	7	90	0.00	30.144 
17:35	41.1	41.1	41.1	34	14.9	2	7	112	0.00	30.144 
17:40	40.9	40.9	40.9	34	14.7	3	9	90	0.00	30.144 
17:45	40.6	40.6	40.6	35	15.1	3	9	90	0.00	30.144 
17:50	40.3	40.3	40.3	36	15.5	3	7	90	0.00	30.144 
17:55	40.2	40.2	40.2	36	15.4	3	12	112	0.00	30.144 
18:00	40.2	37.5	40.2	36	15.4	4	10	112	0.00	30.130 
18:05	40.2	40.2	40.2	36	15.4	2	7	68	0.00	30.130 
18:10	39.9	39.9	39.9	38	16.4	2	5	112	0.00	30.130 
18:15	39.8	39.8	39.8	38	16.3	2	5	112	0.00	30.129 
18:20	39.5	39.5	39.5	39	16.6	2	9	112	0.00	30.129 
18:25	39.3	39.3	39.3	39	16.4	3	6	90	0.00	30.129 
18:30	39.2	39.2	39.2	40	16.9	2	6	90	0.00	30.116 
18:35	38.9	38.9	38.9	41	17.2	2	9	112	0.00	30.116 
18:40	38.6	38.6	38.6	41	17.0	2	6	90	0.00	30.116 
18:45	38.5	38.5	38.5	42	17.4	2	9	112	0.00	30.105 
18:50	38.2	38.2	38.2	43	17.7	2	4	112	0.00	30.105 
18:55	37.9	37.9	37.9	43	17.4	2	4	112	0.00	30.105 
19:00	37.8	37.8	37.8	44	17.9	2	4	90	0.00	30.103 
19:05	37.5	37.5	37.5	44	17.6	1	3	90	0.00	30.103 
19:10	37.5	37.5	37.5	44	17.6	1	3	90	0.00	30.103 
19:15	37.3	37.3	37.3	45	17.9	1	4	112	0.00	30.105 
19:20	37.3	37.3	37.3	45	17.9	1	5	112	0.00	30.105 
19:25	37.3	37.3	37.3	46	18.4	1	3	135	0.00	30.105 
19:30	37.2	37.2	37.2	46	18.3	1	4	135	0.00	30.097 
19:35	37.2	37.2	37.2	46	18.3	1	3	135	0.00	30.097 
19:40	37.0	37.0	37.0	47	18.7	1	3	135	0.00	30.097 
19:45	37.0	37.0	37.0	47	18.7	1	4	90	0.00	30.087 
19:50	36.9	36.9	36.9	47	18.6	1	3	112	0.00	30.087 
19:55	36.9	36.9	36.9	48	19.1	1	3	135	0.00	30.087 
20:00	36.8	36.8	36.8	48	19.0	1	3	112	0.00	30.072 
20:05	36.6	36.6	36.6	48	18.8	1	3	112	0.00	30.072 
20:10	36.6	36.6	36.6	48	18.8	1	3	112	0.00	30.072 
20:15	36.5	36.5	36.5	48	18.7	1	3	112	0.00	30.055 
20:20	36.3	36.3	36.3	49	19.0	1	2	135	0.00	30.055 
20:25	36.5	36.5	36.5	48	18.7	1	3	112	0.00	30.055 
20:30	36.6	36.6	36.6	49	19.3	1	2	112	0.00	30.052 
20:35	36.8	36.8	36.8	49	19.5	1	3	112	0.00	30.052 
20:40	36.9	36.9	36.9	48	19.1	1	4	112	0.00	30.052 
20:45	37.0	37.0	37.0	48	19.2	1	4	112	0.00	30.050 
20:50	37.2	37.2	37.2	48	19.3	1	2	135	0.00	30.050 
20:55	37.2	37.2	37.2	49	19.8	0	3	135	0.00	30.050 
21:00	37.3	37.3	37.3	49	19.9	0	3	68	0.00	30.060 
21:05	37.5	37.5	37.5	49	20.1	1	7	90	0.00	30.060 
21:10	37.8	37.8	37.8	48	19.9	1	6	90	0.00	30.060 
21:15	37.9	37.9	37.9	49	20.5	1	3	248	0.00	30.051 
21:20	37.8	37.8	37.8	49	20.4	1	4	292	0.00	30.051 
21:25	37.9	37.9	37.9	49	20.5	1	4	22	0.00	30.051 
21:30	37.9	37.9	37.9	50	20.9	1	3	225	0.00	30.054 
21:35	37.9	37.9	37.9	50	20.9	1	6	292	0.00	30.054 
21:40	37.9	37.9	37.9	50	20.9	1	3	0	0.00	30.054 
21:45	38.0	38.0	38.0	50	21.0	1	3	270	0.00	30.049 
21:50	38.0	38.0	38.0	50	21.0	1	4	270	0.00	30.049 
21:55	38.0	38.0	38.0	50	21.0	1	4	315	0.00	30.049 
22:00	38.0	38.0	38.0	50	21.0	1	3	315	0.00	30.033 
22:05	38.0	38.0	38.0	51	21.5	1	2	45	0.00	30.033 
22:10	38.0	38.0	38.0	51	21.5	2	6	248	0.00	30.033 
22:15	38.2	38.2	38.2	52	22.1	2	5	292	0.00	30.026 
22:20	38.2	38.2	38.2	52	22.1	1	4	248	0.00	30.026 
22:25	38.2	38.2	38.2	53	22.6	1	6	315	0.00	30.026 
22:30	38.2	38.2	38.2	52	22.1	2	6	90	0.00	30.015 
22:35	38.5	38.5	38.5	52	22.4	1	4	90	0.00	30.015 
22:40	38.8	38.8	38.8	52	22.7	1	5	248	0.00	30.015 
22:45	38.9	38.9	38.9	51	22.3	2	6	292	0.00	30.004 
22:50	39.1	39.1	39.1	51	22.5	1	6	45	0.00	30.004 
22:55	39.2	39.2	39.2	52	23.1	1	3	270	0.00	30.004 
23:00	39.5	39.5	39.5	51	22.9	2	6	248	0.00	29.992 
23:05	39.8	39.8	39.8	50	22.7	2	9	270	0.00	29.992 
23:10	40.1	40.1	40.1	50	23.0	2	5	248	0.00	29.992 
23:15	40.2	40.2	40.2	50	23.1	2	5	248	0.00	29.977 
23:20	40.3	40.3	40.3	50	23.2	2	5	270	0.00	29.977 
23:25	40.2	40.2	40.2	50	23.1	1	3	270	0.00	29.977 
23:30	40.1	40.1	40.1	51	23.4	1	5	270	0.00	29.972 
23:35	39.9	39.9	39.9	51	23.3	1	4	270	0.00	29.972 
23:40	39.9	39.9	39.9	51	23.3	2	6	248	0.00	29.972 
23:45	39.9	39.9	39.9	52	23.7	1	4	225	0.00	29.960 
23:50	39.8	39.8	39.8	52	23.6	1	4	315	0.00	29.960 
23:55	39.6	39.6	39.6	52	23.4	2	5	248	0.00	29.960 

CoCoRaHS
IN-AL-39
A2 Web Hosting
Creative Commons License
GoDaddy
Look for:

loaded 2017-10-17 00:11:10 • last modified 2010-11-18 10:43:29
Privacy PolicyDisclaimer
• wx.awcolley.com is powered by PmWiki v.2002016 •
• all content (unless otherwise noted) © 2017 A W Colley